Time;durP1;ratioP1;P1;durP2;ratioP2;P2;SDS_P1;SDS_P2;PMS_P1;PMS_P2;Temp;Humidity;BMP_temperature;BMP_pressure;BME280_temperature;BME280_humidity;BME280_pressure;Samples;Min_cycle;Max_cycle;Signal;HPM_P1;HPM_P2
2022/09/22 00:00:05;;;;;;;2.65;1.00;;;;;;;23.22;45.40;99140.38;2087221;28;20048;-49
2022/09/22 00:01:10;;;;;;;3.20;0.88;;;;;;;23.23;45.60;99142.03;2085628;28;20052;-48
2022/09/22 00:02:10;;;;;;;1.70;1.08;;;;;;;23.22;45.55;99137.69;2086249;28;20086;-49
2022/09/22 00:03:12;;;;;;;1.67;0.65;;;;;;;23.23;45.55;99136.63;2087429;28;20134;-49
2022/09/22 00:04:13;;;;;;;2.83;0.52;;;;;;;23.22;45.54;99137.69;2085203;28;20624;-50
2022/09/22 00:05:14;;;;;;;1.38;0.63;;;;;;;23.25;45.50;99139.94;2082586;28;20048;-53
2022/09/22 00:06:19;;;;;;;0.65;0.60;;;;;;;23.23;45.43;99133.91;2084241;28;20048;-48
2022/09/22 00:07:20;;;;;;;1.90;0.63;;;;;;;23.23;45.58;99135.78;2084726;28;20055;-51
2022/09/22 00:08:21;;;;;;;5.57;1.95;;;;;;;23.23;45.61;99139.31;2087252;28;20285;-49
2022/09/22 00:09:24;;;;;;;1.95;0.75;;;;;;;23.23;45.53;99133.09;2089203;28;20052;-47
2022/09/22 00:10:25;;;;;;;1.08;0.30;;;;;;;23.20;45.60;99137.06;2089379;28;20232;-49
2022/09/22 00:11:28;;;;;;;;;;;;;;;23.10;45.86;99134.88;2088970;28;20045;-52
2022/09/22 00:12:28;;;;;;;1.73;0.70;;;;;;;23.12;45.72;99137.34;2088624;28;19921;-47
2022/09/22 00:13:31;;;;;;;1.52;0.50;;;;;;;23.16;45.70;99136.69;2087474;28;20537;-50
2022/09/22 00:14:33;;;;;;;1.00;0.40;;;;;;;23.17;45.64;99132.09;2089797;28;20572;-51
2022/09/22 00:15:34;;;;;;;2.50;0.60;;;;;;;23.20;45.66;99134.38;2088225;28;20090;-52
2022/09/22 00:16:38;;;;;;;1.35;0.50;;;;;;;23.18;45.80;99139.19;2085931;28;20048;-54
2022/09/22 00:17:39;;;;;;;0.82;0.80;;;;;;;23.17;45.59;99130.22;2083446;28;20049;-54
2022/09/22 00:18:41;;;;;;;1.13;0.57;;;;;;;23.20;45.68;99137.06;2087024;28;20051;-51
2022/09/22 00:19:42;;;;;;;2.53;1.00;;;;;;;23.19;45.82;99135.41;2088992;28;20075;-53
2022/09/22 00:20:43;;;;;;;1.65;0.40;;;;;;;23.19;45.59;99135.41;2079142;28;21760;-52
2022/09/22 00:21:45;;;;;;;1.85;0.80;;;;;;;23.18;45.67;99141.91;2086892;28;20044;-53
2022/09/22 00:22:49;;;;;;;3.92;0.98;;;;;;;23.18;45.85;99137.31;2085919;28;20596;-52
2022/09/22 00:23:51;;;;;;;1.10;0.50;;;;;;;23.17;45.95;99138.34;2084713;28;20099;-51
2022/09/22 00:24:54;;;;;;;1.58;0.43;;;;;;;23.16;45.76;99133.97;2089521;28;20950;-52
2022/09/22 00:25:54;;;;;;;1.40;0.90;;;;;;;23.15;45.82;99132.34;2087994;28;20975;-51
2022/09/22 00:26:58;;;;;;;1.08;0.75;;;;;;;23.17;45.87;99137.50;2087624;28;20052;-53
2022/09/22 00:27:59;;;;;;;0.98;0.60;;;;;;;23.15;46.05;99139.59;2082000;28;20041;-54
2022/09/22 00:29:01;;;;;;;0.73;0.35;;;;;;;23.16;45.78;99127.75;2084676;28;20052;-52
2022/09/22 00:30:02;;;;;;;2.90;0.63;;;;;;;23.15;45.74;99128.78;2083863;28;20078;-53
2022/09/22 00:31:07;;;;;;;0.30;0.30;;;;;;;23.18;45.74;99128.38;2085176;28;20161;-53
2022/09/22 00:32:09;;;;;;;0.38;0.32;;;;;;;23.16;45.67;99133.97;2085605;28;20568;-53
2022/09/22 00:33:10;;;;;;;5.43;0.50;;;;;;;23.15;45.77;99126.94;2086416;28;20056;-51
2022/09/22 00:34:15;;;;;;;0.55;0.50;;;;;;;23.17;45.92;99132.09;2090566;28;20053;-49
2022/09/22 00:35:16;;;;;;;2.63;1.10;;;;;;;23.16;45.84;99130.44;2095649;28;20497;-53
2022/09/22 00:36:20;;;;;;;1.50;0.47;;;;;;;23.16;45.78;99131.28;2092939;28;20052;-51
2022/09/22 00:37:21;;;;;;;1.90;0.68;;;;;;;23.15;45.90;99128.78;2095898;28;20048;-49
2022/09/22 00:38:22;;;;;;;2.22;0.57;;;;;;;23.14;45.88;99127.13;2097830;28;20333;-49
2022/09/22 00:39:23;;;;;;;0.95;0.50;;;;;;;23.13;45.71;99129.03;2095666;28;20525;-49
2022/09/22 00:40:26;;;;;;;0.85;0.28;;;;;;;23.15;45.85;99124.22;2090727;28;20109;-51
2022/09/22 00:41:31;;;;;;;2.55;0.57;;;;;;;23.14;45.86;99124.44;2096746;28;20040;-52
2022/09/22 00:42:32;;;;;;;2.08;0.30;;;;;;;23.11;45.96;99124.88;2094218;28;20047;-50
2022/09/22 00:43:35;;;;;;;2.08;0.70;;;;;;;23.12;45.80;99123.81;2095353;28;20139;-52
2022/09/22 00:44:39;;;;;;;0.77;0.40;;;;;;;23.13;45.80;99129.03;2095482;28;20930;-50
2022/09/22 00:45:40;;;;;;;0.40;0.38;;;;;;;23.13;46.12;99128.19;2092763;28;20092;-48
2022/09/22 00:46:44;;;;;;;1.40;0.20;;;;;;;23.12;45.99;99130.06;2093078;28;20506;-47
2022/09/22 00:47:47;;;;;;;2.20;0.77;;;;;;;23.13;45.93;99122.78;2094803;28;20048;-51
2022/09/22 00:48:53;;;;;;;1.15;0.60;;;;;;;23.13;45.85;99122.78;2093395;28;20112;-51
2022/09/22 00:49:59;;;;;;;0.88;0.40;;;;;;;23.11;45.86;99123.00;2093928;28;20114;-51
2022/09/22 00:51:04;;;;;;;1.65;0.50;;;;;;;23.11;45.96;99120.28;2088184;28;20052;-51
2022/09/22 00:52:07;;;;;;;1.35;0.52;;;;;;;23.10;45.97;99125.94;2094190;28;20928;-48
2022/09/22 00:53:11;;;;;;;3.78;0.70;;;;;;;23.09;46.05;99121.56;2094542;28;20051;-48
2022/09/22 00:54:18;;;;;;;1.73;0.60;;;;;;;23.09;46.02;99118.84;2099148;28;20172;-52
2022/09/22 00:55:24;;;;;;;3.50;0.50;;;;;;;23.08;45.99;99112.63;2091603;28;20590;-52
2022/09/22 00:56:32;;;;;;;3.70;0.88;;;;;;;23.08;46.12;99117.19;2094029;28;20075;-47
2022/09/22 00:57:35;;;;;;;2.35;0.80;;;;;;;23.10;46.00;99117.81;2093290;28;20048;-47
2022/09/22 00:58:41;;;;;;;2.67;0.35;;;;;;;23.11;46.00;99111.34;2095389;28;20421;-48
2022/09/22 00:59:45;;;;;;;3.75;0.60;;;;;;;23.06;46.09;99112.00;2095523;28;20626;-48
2022/09/22 01:00:47;;;;;;;1.27;0.38;;;;;;;23.08;46.10;99117.19;2095113;28;20567;-48
2022/09/22 01:01:48;;;;;;;2.97;0.35;;;;;;;23.08;46.10;99109.91;2093366;28;20101;-52
2022/09/22 01:02:57;;;;;;;0.60;0.60;;;;;;;23.09;45.97;99108.84;2091454;28;20044;-51
2022/09/22 01:03:58;;;;;;;1.63;0.30;;;;;;;23.07;46.02;99110.16;2093149;28;20064;-50
2022/09/22 01:05:00;;;;;;;1.92;0.40;;;;;;;23.06;46.36;99108.47;2094833;28;21426;-49
2022/09/22 01:06:04;;;;;;;0.93;0.43;;;;;;;23.07;46.07;99110.97;2090336;28;20048;-47
2022/09/22 01:07:06;;;;;;;1.27;0.60;;;;;;;23.06;46.17;99112.00;2090343;28;20059;-50
2022/09/22 01:08:10;;;;;;;1.33;0.63;;;;;;;23.06;46.15;99112.00;2093002;28;20041;-51
2022/09/22 01:09:13;;;;;;;2.60;0.50;;;;;;;23.07;46.12;99107.44;2093085;28;20051;-49
2022/09/22 01:10:14;;;;;;;3.35;0.50;;;;;;;23.07;46.18;99112.84;2092600;28;20045;-50
2022/09/22 01:11:19;;;;;;;2.40;0.82;;;;;;;23.07;46.28;99105.56;2092766;28;20059;-50
2022/09/22 01:12:23;;;;;;;1.85;0.73;;;;;;;23.05;46.15;99110.34;2093596;28;20048;-47
2022/09/22 01:13:31;;;;;;;0.63;0.60;;;;;;;23.07;46.04;99104.75;2094354;28;20040;-50
2022/09/22 01:14:46;;;;;;;1.50;0.40;;;;;;;23.02;46.07;99102.69;2095988;28;20050;-47
2022/09/22 01:15:59;;;;;;;2.03;0.40;;;;;;;23.02;46.15;99102.69;2090803;28;20482;-49
2022/09/22 01:17:08;;;;;;;1.95;0.43;;;;;;;23.01;46.19;99102.88;2093204;28;20055;-49
2022/09/22 01:18:19;;;;;;;1.60;0.43;;;;;;;23.00;46.32;99106.66;2090696;28;20044;-49
2022/09/22 01:19:52;;;;;;;1.60;0.30;;;;;;;22.96;46.42;99106.28;2090857;28;21042;-51
2022/09/22 01:21:31;;;;;;;0.65;0.40;;;;;;;22.93;46.43;99099.41;2079629;28;20060;-49
2022/09/22 01:22:56;;;;;;;1.75;0.30;;;;;;;22.93;46.59;99099.41;2074817;28;20731;-51
2022/09/22 01:24:29;;;;;;;1.67;0.30;;;;;;;22.92;46.44;99102.31;2096302;28;20048;-49
2022/09/22 01:25:50;;;;;;;0.68;0.63;;;;;;;22.92;46.56;99107.72;2096418;28;20052;-51
2022/09/22 01:27:46;;;;;;;0.40;0.30;;;;;;;22.90;46.42;99099.00;2092881;28;20044;-49
2022/09/22 01:29:10;;;;;;;1.45;0.43;;;;;;;22.90;46.61;99094.44;2090970;28;20808;-50
2022/09/22 01:30:20;;;;;;;1.17;0.90;;;;;;;22.92;46.29;99095.00;2096029;28;20052;-51
2022/09/22 01:31:26;;;;;;;0.50;0.30;;;;;;;22.95;46.30;99097.31;2095974;28;20054;-49
2022/09/22 01:32:31;;;;;;;0.65;0.38;;;;;;;22.95;46.34;99097.31;2093915;28;20040;-51
2022/09/22 01:33:42;;;;;;;0.70;0.30;;;;;;;22.94;46.38;99087.53;2093333;28;20044;-49
2022/09/22 01:34:51;;;;;;;1.65;0.82;;;;;;;22.95;46.32;99089.19;2094215;28;20079;-48
2022/09/22 01:36:04;;;;;;;0.63;0.22;;;;;;;22.96;46.14;99096.28;2088499;28;22198;-47
2022/09/22 01:37:14;;;;;;;0.80;0.43;;;;;;;22.94;46.46;99092.94;2097069;28;20051;-49
2022/09/22 01:38:28;;;;;;;0.88;0.38;;;;;;;22.96;46.20;99098.16;2092659;28;20624;-49
2022/09/22 01:39:35;;;;;;;2.15;0.43;;;;;;;22.95;46.42;99094.59;2093441;28;20037;-49
2022/09/22 01:40:43;;;;;;;1.00;0.40;;;;;;;22.95;46.39;99094.59;2091483;28;20041;-50
2022/09/22 01:41:57;;;;;;;3.70;0.50;;;;;;;22.93;46.41;99096.69;2092622;28;20076;-52
2022/09/22 01:43:10;;;;;;;0.52;0.30;;;;;;;22.91;46.47;99093.38;2093531;28;20049;-49
2022/09/22 01:44:17;;;;;;;0.65;0.30;;;;;;;22.93;46.44;99096.69;2093847;28;20047;-48
2022/09/22 01:45:23;;;;;;;1.08;0.43;;;;;;;22.94;46.36;99094.81;2093754;28;20052;-49
2022/09/22 01:46:31;;;;;;;2.45;0.30;;;;;;;22.95;46.21;99097.31;2092514;28;20048;-50
2022/09/22 01:47:39;;;;;;;0.28;0.28;;;;;;;22.94;46.42;99092.94;2091345;28;20122;-49
2022/09/22 01:48:46;;;;;;;1.25;0.20;;;;;;;22.94;46.43;99097.50;2090836;28;20052;-48
2022/09/22 01:49:51;;;;;;;0.75;0.28;;;;;;;22.94;46.35;99086.69;2094024;28;20440;-48
2022/09/22 01:50:57;;;;;;;0.77;0.40;;;;;;;22.95;46.35;99105.44;2090882;28;20079;-48
2022/09/22 01:52:03;;;;;;;0.40;0.20;;;;;;;22.93;46.32;99099.41;2092476;28;20047;-50
2022/09/22 01:53:09;;;;;;;0.52;0.43;;;;;;;22.92;46.42;99092.31;2096695;28;20055;-49
2022/09/22 01:54:13;;;;;;;1.20;0.43;;;;;;;22.95;46.35;99094.59;2097480;28;20048;-49
2022/09/22 01:55:23;;;;;;;0.50;0.32;;;;;;;22.93;46.40;99098.56;2093752;28;20129;-49
2022/09/22 01:56:28;;;;;;;0.38;0.38;;;;;;;22.93;46.39;99093.16;2092732;28;20105;-47
2022/09/22 01:57:34;;;;;;;0.50;0.50;;;;;;;22.93;46.43;99099.41;2098422;28;20402;-48
2022/09/22 01:58:39;;;;;;;0.80;0.20;;;;;;;22.93;46.35;99095.88;2092477;28;20056;-50
2022/09/22 01:59:43;;;;;;;2.47;0.50;;;;;;;22.92;46.52;99092.31;2086148;28;20414;-50
2022/09/22 02:00:54;;;;;;;0.35;0.35;;;;;;;22.90;46.57;99089.03;2091164;28;20055;-48
2022/09/22 02:02:00;;;;;;;0.50;0.30;;;;;;;22.89;46.62;99095.47;2081933;28;20048;-47
2022/09/22 02:03:05;;;;;;;2.60;1.17;;;;;;;22.90;46.74;99094.44;2082345;28;20093;-49
2022/09/22 02:04:12;;;;;;;1.02;0.45;;;;;;;22.91;46.61;99096.06;2088228;28;20055;-52
2022/09/22 02:05:17;;;;;;;0.63;0.40;;;;;;;22.90;46.61;99094.44;2082730;28;20118;-47
2022/09/22 02:06:23;;;;;;;2.83;0.52;;;;;;;22.91;46.62;99096.06;2084498;28;20058;-50
2022/09/22 02:07:29;;;;;;;1.33;0.43;;;;;;;22.91;46.61;99093.38;2083734;28;20140;-50
2022/09/22 02:08:37;;;;;;;1.17;0.43;;;;;;;22.89;46.66;99090.06;2085488;28;20053;-51
2022/09/22 02:09:41;;;;;;;4.65;0.98;;;;;;;22.91;46.74;99087.13;2085949;28;20044;-49
2022/09/22 02:10:45;;;;;;;3.45;0.60;;;;;;;22.89;46.60;99084.66;2087471;28;20117;-50
2022/09/22 02:11:47;;;;;;;0.57;0.30;;;;;;;22.91;46.63;99087.13;2085036;28;20504;-49
2022/09/22 02:12:49;;;;;;;0.85;0.50;;;;;;;22.90;46.56;99091.72;2084546;28;20620;-50
2022/09/22 02:13:50;;;;;;;3.15;0.32;;;;;;;22.90;46.78;99093.56;2085329;28;20052;-49
2022/09/22 02:14:52;;;;;;;1.50;0.77;;;;;;;22.90;46.59;99089.03;2081192;28;20063;-50
2022/09/22 02:16:01;;;;;;;0.82;0.30;;;;;;;22.90;46.66;99090.88;2084549;28;20523;-50
2022/09/22 02:17:02;;;;;;;1.38;0.43;;;;;;;22.88;46.80;99082.19;2083562;28;20049;-50
2022/09/22 02:18:08;;;;;;;0.77;0.40;;;;;;;22.90;46.65;99088.16;2084962;28;21138;-47
2022/09/22 02:19:15;;;;;;;1.40;0.47;;;;;;;22.90;46.62;99091.72;2090383;28;20083;-48
2022/09/22 02:20:16;;;;;;;0.50;0.40;;;;;;;22.90;46.59;99088.16;2091241;28;20878;-49
2022/09/22 02:21:18;;;;;;;1.35;0.30;;;;;;;22.88;46.70;99085.69;2088690;28;20059;-49
2022/09/22 02:22:20;;;;;;;1.30;0.30;;;;;;;22.88;46.72;99088.41;2093935;28;20056;-50
2022/09/22 02:23:22;;;;;;;0.98;0.32;;;;;;;22.87;46.73;99094.03;2092706;28;20036;-48
2022/09/22 02:24:28;;;;;;;1.58;0.63;;;;;;;22.87;46.92;99088.63;2090634;28;20064;-47
2022/09/22 02:25:30;;;;;;;0.85;0.50;;;;;;;22.87;46.83;99085.91;2091217;28;20044;-49
2022/09/22 02:26:34;;;;;;;0.77;0.50;;;;;;;22.89;46.65;99090.06;2095832;28;20088;-46
2022/09/22 02:27:36;;;;;;;0.63;0.50;;;;;;;22.90;46.58;99093.56;2091372;28;20506;-50
2022/09/22 02:28:40;;;;;;;2.47;0.20;;;;;;;22.89;46.56;99083.81;2094580;28;20467;-50
2022/09/22 02:29:46;;;;;;;1.55;0.38;;;;;;;22.86;46.74;99087.78;2089930;28;20040;-48
2022/09/22 02:30:51;;;;;;;0.60;0.43;;;;;;;22.86;46.71;99087.78;2094931;28;20052;-48
2022/09/22 02:31:55;;;;;;;2.42;0.43;;;;;;;22.88;46.84;99093.81;2094361;28;20052;-48
2022/09/22 02:32:58;;;;;;;1.98;0.75;;;;;;;22.87;46.61;99092.16;2093003;28;20101;-48
2022/09/22 02:34:01;;;;;;;0.98;0.43;;;;;;;22.87;46.81;99089.47;2093704;28;20525;-46
2022/09/22 02:35:03;;;;;;;0.95;0.38;;;;;;;22.88;46.66;99091.13;2095592;28;20088;-49
2022/09/22 02:36:18;;;;;;;1.30;0.73;;;;;;;22.88;46.60;99085.69;2085121;28;20036;-48
2022/09/22 02:37:25;;;;;;;0.90;0.40;;;;;;;22.84;46.77;99089.88;2091134;28;20517;-49
2022/09/22 02:38:34;;;;;;;0.77;0.40;;;;;;;22.84;46.66;99078.25;2091370;28;21287;-48
2022/09/22 02:39:40;;;;;;;0.93;0.32;;;;;;;22.84;46.76;99083.66;2094975;28;20136;-47
2022/09/22 02:40:46;;;;;;;1.67;0.35;;;;;;;22.84;46.97;99080.94;2092879;28;20036;-49
2022/09/22 02:42:02;;;;;;;0.73;0.40;;;;;;;22.80;46.81;99085.16;2093409;28;20051;-48
2022/09/22 02:43:10;;;;;;;0.77;0.30;;;;;;;22.81;46.95;99084.91;2094094;28;20086;-49
2022/09/22 02:44:18;;;;;;;0.77;0.20;;;;;;;22.83;46.72;99082.00;2091852;28;20052;-46
2022/09/22 02:45:25;;;;;;;2.22;0.40;;;;;;;22.84;46.79;99084.47;2091960;28;20128;-49
2022/09/22 02:46:32;;;;;;;0.85;0.40;;;;;;;22.84;46.90;99087.19;2089815;28;20131;-49
2022/09/22 02:47:39;;;;;;;2.75;0.45;;;;;;;22.84;46.82;99084.47;2093305;28;20044;-52
2022/09/22 02:48:46;;;;;;;0.70;0.40;;;;;;;22.83;46.94;99074.72;2093059;28;20522;-48
2022/09/22 02:49:49;;;;;;;4.13;0.50;;;;;;;22.83;46.94;99087.41;2088426;28;20105;-49
2022/09/22 02:50:52;;;;;;;3.72;0.55;;;;;;;22.83;46.90;99079.31;2091295;28;20048;-50
2022/09/22 02:51:53;;;;;;;4.38;0.55;;;;;;;22.86;46.85;99084.25;2093127;28;20669;-48
2022/09/22 02:52:58;;;;;;;1.88;0.93;;;;;;;22.86;46.85;99081.56;2094043;28;20679;-51
2022/09/22 02:54:00;;;;;;;2.47;0.50;;;;;;;22.84;46.88;99084.47;2085530;28;20125;-52
2022/09/22 02:55:02;;;;;;;0.75;0.40;;;;;;;22.82;46.92;99085.78;2097271;28;20052;-54
2022/09/22 02:56:03;;;;;;;0.95;0.45;;;;;;;22.85;46.86;99088.03;2093928;28;20044;-51
2022/09/22 02:57:05;;;;;;;2.17;0.30;;;;;;;22.83;46.86;99088.22;2093005;28;20131;-53
2022/09/22 02:58:06;;;;;;;2.38;0.40;;;;;;;22.83;46.85;99090.94;2096429;28;20059;-49
2022/09/22 02:59:09;;;;;;;2.00;0.38;;;;;;;22.83;46.83;99088.22;2096268;28;20044;-54
2022/09/22 03:00:12;;;;;;;0.93;0.30;;;;;;;22.83;46.86;99084.72;2095131;28;20032;-49
2022/09/22 03:01:12;;;;;;;5.47;0.50;;;;;;;22.83;46.89;99082.81;2095226;28;20086;-50
2022/09/22 03:02:14;;;;;;;3.28;0.40;;;;;;;22.81;46.80;99084.91;2092047;28;21091;-47
2022/09/22 03:03:17;;;;;;;2.45;0.40;;;;;;;22.82;46.75;99089.28;2096471;28;20056;-46
2022/09/22 03:04:18;;;;;;;2.78;0.45;;;;;;;22.82;46.92;99086.59;2093845;28;20143;-52
2022/09/22 03:05:19;;;;;;;1.05;0.32;;;;;;;22.80;46.96;99088.69;2091926;28;20045;-50
2022/09/22 03:06:21;;;;;;;3.20;0.45;;;;;;;22.78;46.93;99090.78;2090182;28;20048;-47
2022/09/22 03:07:21;;;;;;;3.92;0.60;;;;;;;22.80;46.93;99083.28;2094937;28;20039;-48
2022/09/22 03:08:23;;;;;;;2.30;0.45;;;;;;;22.82;46.79;99086.59;2096840;28;20770;-53
2022/09/22 03:09:24;;;;;;;1.13;0.60;;;;;;;22.84;46.78;99092.59;2098237;28;20051;-50
2022/09/22 03:10:25;;;;;;;1.33;0.35;;;;;;;22.80;46.84;99090.56;2095889;28;20048;-46
2022/09/22 03:11:26;;;;;;;2.47;0.35;;;;;;;22.81;46.81;99093.03;2090585;28;20097;-50
2022/09/22 03:12:28;;;;;;;1.75;0.35;;;;;;;22.82;46.72;99085.78;2097015;28;20052;-52
2022/09/22 03:13:29;;;;;;;1.13;0.40;;;;;;;22.82;46.68;99094.69;2092050;28;20102;-50
2022/09/22 03:14:30;;;;;;;2.65;0.40;;;;;;;22.81;46.96;99090.31;2094148;28;20056;-48
2022/09/22 03:15:31;;;;;;;1.25;0.68;;;;;;;22.81;46.71;99094.91;2096860;28;20139;-51
2022/09/22 03:16:33;;;;;;;1.38;0.30;;;;;;;22.80;46.81;99095.97;2094342;28;20037;-49
2022/09/22 03:17:34;;;;;;;1.55;0.47;;;;;;;22.80;46.83;99091.38;2091135;28;20844;-50
2022/09/22 03:18:37;;;;;;;3.92;0.60;;;;;;;22.78;46.86;99107.00;2094260;28;20155;-52
2022/09/22 03:19:38;;;;;;;1.27;0.60;;;;;;;22.79;46.82;99097.84;2084038;28;20049;-50
2022/09/22 03:20:39;;;;;;;1.58;0.50;;;;;;;22.77;46.80;99094.53;2090948;28;20052;-52
2022/09/22 03:21:40;;;;;;;1.02;0.20;;;;;;;22.77;46.91;99094.53;2097023;28;20044;-49
2022/09/22 03:22:42;;;;;;;0.30;0.20;;;;;;;22.77;46.91;99094.53;2093392;28;20044;-50
2022/09/22 03:23:43;;;;;;;0.15;0.10;;;;;;;22.77;46.89;99099.94;2095159;28;20574;-50
2022/09/22 03:24:44;;;;;;;1.70;0.50;;;;;;;22.77;46.90;99099.13;2091184;28;20044;-54
2022/09/22 03:25:45;;;;;;;0.80;0.55;;;;;;;22.77;46.94;99099.94;2095694;28;20053;-48
2022/09/22 03:26:47;;;;;;;1.27;0.50;;;;;;;22.76;46.92;99090.16;2095667;28;20044;-54
2022/09/22 03:27:48;;;;;;;1.92;0.32;;;;;;;22.77;46.91;99102.66;2095644;28;20461;-46
2022/09/22 03:28:49;;;;;;;5.45;1.55;;;;;;;22.73;46.92;99094.16;2083723;28;20123;-49
2022/09/22 03:29:50;;;;;;;1.42;0.40;;;;;;;22.74;46.85;99092.28;2088161;28;20087;-53
2022/09/22 03:30:52;;;;;;;0.68;0.40;;;;;;;22.74;47.13;99087.69;2087627;28;20060;-51
2022/09/22 03:31:52;;;;;;;1.38;0.35;;;;;;;22.75;47.04;99091.22;2092428;28;20076;-52
2022/09/22 03:32:54;;;;;;;;;;;;;;;22.62;47.22;99092.16;2094513;28;20489;-51
2022/09/22 03:33:56;;;;;;;2.03;0.70;;;;;;;22.64;47.15;99091.91;2093274;28;20363;-52
2022/09/22 03:34:58;;;;;;;0.45;0.45;;;;;;;22.67;47.15;99089.59;2087008;28;20114;-52
2022/09/22 03:35:58;;;;;;;1.90;0.73;;;;;;;22.70;47.12;99093.75;2091424;28;20049;-53
2022/09/22 03:37:00;;;;;;;0.68;0.68;;;;;;;22.72;46.91;99091.66;2091876;28;20048;-49
2022/09/22 03:38:01;;;;;;;0.95;0.40;;;;;;;22.72;47.10;99086.25;2096329;28;20093;-54
2022/09/22 03:39:02;;;;;;;0.85;0.30;;;;;;;22.71;47.07;99095.41;2094002;28;20048;-51
2022/09/22 03:40:04;;;;;;;0.50;0.40;;;;;;;22.72;47.07;99086.25;2095336;28;20045;-52
2022/09/22 03:41:05;;;;;;;1.08;0.40;;;;;;;22.72;46.99;99083.53;2094267;28;20066;-52
2022/09/22 03:42:07;;;;;;;0.80;0.20;;;;;;;22.73;46.99;99087.88;2094551;28;20124;-51
2022/09/22 03:43:09;;;;;;;2.15;0.50;;;;;;;22.74;46.92;99087.69;2093242;28;20155;-49
2022/09/22 03:44:10;;;;;;;3.25;0.30;;;;;;;22.74;47.00;99087.69;2093391;28;20048;-52
2022/09/22 03:45:13;;;;;;;1.83;0.40;;;;;;;22.71;47.06;99081.91;2095710;28;20048;-48
2022/09/22 03:46:14;;;;;;;0.65;0.30;;;;;;;22.72;47.13;99097.06;2096077;28;20055;-47
2022/09/22 03:47:16;;;;;;;5.45;0.80;;;;;;;22.72;46.88;99083.53;2091614;28;20119;-52
2022/09/22 03:48:17;;;;;;;1.40;0.30;;;;;;;22.71;47.09;99079.19;2094944;28;20048;-51
2022/09/22 03:49:20;;;;;;;0.47;0.10;;;;;;;22.74;47.04;99084.16;2092034;28;20048;-52
2022/09/22 03:50:21;;;;;;;0.93;0.40;;;;;;;22.72;46.85;99087.06;2088826;28;20054;-47
2022/09/22 03:51:22;;;;;;;0.35;0.32;;;;;;;22.69;46.84;99081.28;2097301;28;20525;-51
2022/09/22 03:52:23;;;;;;;3.03;0.30;;;;;;;22.67;47.22;99084.19;2093386;28;20093;-47
2022/09/22 03:53:25;;;;;;;1.77;0.30;;;;;;;22.71;47.01;99079.19;2092105;28;20098;-51
2022/09/22 03:54:26;;;;;;;1.27;0.55;;;;;;;22.73;47.04;99077.94;2092966;28;20069;-51
2022/09/22 03:55:28;;;;;;;0.70;0.38;;;;;;;22.71;47.06;99081.91;2095785;28;20044;-52
2022/09/22 03:56:29;;;;;;;2.22;0.40;;;;;;;22.71;47.02;99080.00;2096910;28;20136;-51
2022/09/22 03:57:31;;;;;;;0.52;0.50;;;;;;;22.69;47.11;99073.16;2097508;28;20079;-51
2022/09/22 03:58:32;;;;;;;0.73;0.30;;;;;;;22.69;47.26;99081.28;2095908;28;20040;-47
2022/09/22 03:59:33;;;;;;;1.70;0.50;;;;;;;22.69;47.13;99081.28;2096684;28;20987;-54
2022/09/22 04:00:34;;;;;;;0.47;0.10;;;;;;;22.69;47.17;99086.69;2090752;28;20403;-52
2022/09/22 04:01:36;;;;;;;0.68;0.38;;;;;;;22.69;47.18;99086.69;2095247;28;20058;-55
2022/09/22 04:02:37;;;;;;;0.75;0.30;;;;;;;22.69;47.04;99089.38;2093974;28;20047;-50
2022/09/22 04:03:39;;;;;;;0.10;0.08;;;;;;;22.67;47.30;99086.88;2086184;28;20043;-51
2022/09/22 04:04:42;;;;;;;0.13;0.13;;;;;;;22.67;47.10;99086.06;2094807;28;20101;-49
2022/09/22 04:05:49;;;;;;;0.68;0.30;;;;;;;22.67;47.12;99088.78;2092949;28;20552;-54
2022/09/22 04:06:50;;;;;;;3.42;0.50;;;;;;;22.70;47.08;99088.31;2093390;28;20135;-49
2022/09/22 04:07:52;;;;;;;2.53;0.50;;;;;;;22.68;47.10;99080.47;2093439;28;20072;-52
2022/09/22 04:08:53;;;;;;;1.00;0.20;;;;;;;22.70;47.11;99080.22;2093775;28;20957;-53
2022/09/22 04:09:55;;;;;;;0.82;0.30;;;;;;;22.68;47.13;99079.63;2096535;28;20056;-50
2022/09/22 04:10:56;;;;;;;0.88;0.20;;;;;;;22.66;47.18;99082.53;2092151;28;20453;-48
2022/09/22 04:11:58;;;;;;;0.57;0.20;;;;;;;22.67;47.15;99078.78;2099242;28;20064;-53
2022/09/22 04:12:58;;;;;;;1.42;0.40;;;;;;;22.67;47.27;99078.78;2094486;28;20040;-51
2022/09/22 04:14:00;;;;;;;1.73;0.90;;;;;;;22.66;47.19;99084.41;2092465;28;20122;-50
2022/09/22 04:15:01;;;;;;;0.85;0.20;;;;;;;22.66;47.02;99076.31;2094561;28;20081;-52
2022/09/22 04:16:04;;;;;;;1.08;0.40;;;;;;;22.67;47.15;99076.06;2095569;28;20599;-51
2022/09/22 04:17:04;;;;;;;2.45;0.30;;;;;;;22.64;47.24;99078.41;2092979;28;20063;-52
2022/09/22 04:18:06;;;;;;;0.73;0.40;;;;;;;22.65;47.13;99071.94;2096353;28;20058;-52
2022/09/22 04:19:07;;;;;;;0.15;0.10;;;;;;;22.65;47.15;99080.03;2093558;28;20055;-49
2022/09/22 04:20:10;;;;;;;0.40;0.30;;;;;;;22.66;47.12;99081.72;2091079;28;20044;-54
2022/09/22 04:21:11;;;;;;;0.93;0.55;;;;;;;22.65;47.23;99080.03;2093237;28;20134;-47
2022/09/22 04:22:13;;;;;;;2.03;0.55;;;;;;;22.64;47.22;99071.09;2093637;28;20048;-49
2022/09/22 04:23:15;;;;;;;1.05;0.30;;;;;;;22.65;47.07;99080.03;2095508;28;20186;-49
2022/09/22 04:24:16;;;;;;;0.28;0.20;;;;;;;22.67;47.17;99069.84;2095826;28;20049;-48
2022/09/22 04:25:17;;;;;;;5.15;0.60;;;;;;;22.65;47.27;99072.78;2093151;28;20569;-49
2022/09/22 04:26:19;;;;;;;2.53;0.28;;;;;;;22.64;47.15;99067.59;2094834;28;20056;-47
2022/09/22 04:27:20;;;;;;;0.30;0.30;;;;;;;22.66;47.20;99065.50;2092146;28;20108;-48
2022/09/22 04:28:21;;;;;;;0.50;0.50;;;;;;;22.65;47.22;99074.63;2092580;28;20060;-49
2022/09/22 04:29:22;;;;;;;0.85;0.30;;;;;;;22.66;47.39;99070.91;2092204;28;20470;-48
2022/09/22 04:30:24;;;;;;;1.17;0.50;;;;;;;22.65;47.30;99070.09;2095833;28;20102;-50
2022/09/22 04:31:25;;;;;;;1.27;0.10;;;;;;;22.65;47.24;99063.81;2097992;28;20650;-54
2022/09/22 04:32:26;;;;;;;1.33;0.50;;;;;;;22.65;47.13;99066.53;2096307;28;20048;-50
2022/09/22 04:33:27;;;;;;;0.30;0.22;;;;;;;22.65;47.28;99080.03;2096464;28;20044;-50
2022/09/22 04:34:29;;;;;;;1.23;0.30;;;;;;;22.64;47.39;99071.09;2092271;28;20052;-51
2022/09/22 04:35:31;;;;;;;1.50;0.20;;;;;;;22.66;47.20;99076.31;2093231;28;20096;-53
2022/09/22 04:36:32;;;;;;;2.90;0.30;;;;;;;22.66;47.30;99074.44;2094511;28;20037;-49
2022/09/22 04:37:33;;;;;;;0.77;0.32;;;;;;;22.65;47.29;99080.03;2094550;28;20509;-49
2022/09/22 04:38:35;;;;;;;1.65;0.55;;;;;;;22.62;47.32;99080.47;2091157;28;20045;-51
2022/09/22 04:39:36;;;;;;;0.98;0.52;;;;;;;22.64;47.05;99078.41;2096819;28;20592;-51
2022/09/22 04:40:38;;;;;;;1.13;0.30;;;;;;;22.63;47.32;99085.69;2095521;28;20064;-52
2022/09/22 04:41:38;;;;;;;0.28;0.20;;;;;;;22.63;47.37;99082.97;2093861;28;20071;-47
2022/09/22 04:42:40;;;;;;;0.73;0.30;;;;;;;22.63;47.49;99082.16;2094577;28;20475;-49
2022/09/22 04:43:42;;;;;;;0.55;0.25;;;;;;;22.63;47.48;99082.16;2096261;28;20062;-51
2022/09/22 04:44:45;;;;;;;1.35;0.30;;;;;;;22.60;47.46;99079.91;2099529;28;20048;-49
2022/09/22 04:45:47;;;;;;;1.13;0.40;;;;;;;22.61;47.31;99084.25;2096026;28;20067;-50
2022/09/22 04:46:49;;;;;;;1.42;0.68;;;;;;;22.61;47.39;99078.84;2093820;28;20052;-50
2022/09/22 04:47:51;;;;;;;0.28;0.20;;;;;;;22.60;47.30;99083.41;2096886;28;20105;-53
2022/09/22 04:48:53;;;;;;;0.40;0.30;;;;;;;22.60;47.42;99077.19;2092189;28;20155;-52
2022/09/22 04:49:54;;;;;;;0.50;0.30;;;;;;;22.60;47.37;99080.72;2087405;28;20047;-54
2022/09/22 04:50:57;;;;;;;1.25;0.17;;;;;;;22.62;47.49;99080.47;2095318;28;20090;-48
2022/09/22 04:51:58;;;;;;;1.92;0.65;;;;;;;22.60;47.67;99083.41;2093733;28;20498;-51
2022/09/22 04:52:59;;;;;;;0.80;0.40;;;;;;;22.62;47.47;99080.47;2092745;28;20097;-48
2022/09/22 04:54:00;;;;;;;0.60;0.20;;;;;;;22.62;47.45;99078.63;2097052;28;20078;-51
2022/09/22 04:55:02;;;;;;;0.40;0.15;;;;;;;22.62;47.30;99075.06;2094051;28;20106;-53
2022/09/22 04:56:04;;;;;;;0.22;0.10;;;;;;;22.61;47.50;99076.97;2094135;28;20116;-50
2022/09/22 04:57:04;;;;;;;3.88;0.60;;;;;;;22.60;47.48;99082.59;2095310;28;20506;-55
2022/09/22 04:58:07;;;;;;;0.22;0.20;;;;;;;22.58;47.43;99073.88;2094687;28;20056;-48
2022/09/22 04:59:07;;;;;;;0.80;0.80;;;;;;;22.60;47.64;99085.31;2095788;28;20048;-51
2022/09/22 05:00:10;;;;;;;1.33;0.40;;;;;;;22.61;47.31;99084.25;2093829;28;20063;-52
2022/09/22 05:01:11;;;;;;;2.28;0.65;;;;;;;22.59;47.56;99084.44;2095619;28;20105;-52